createdAt,value
2022-08-28T00:00:59.320Z,1.90
2022-08-28T00:01:59.323Z,2.40
2022-08-28T00:02:59.361Z,1.90
2022-08-28T00:03:59.275Z,2.30
2022-08-28T00:04:59.318Z,1.80
2022-08-28T00:05:59.244Z,2.00
2022-08-28T00:06:59.265Z,2.40
2022-08-28T00:07:59.232Z,2.10
2022-08-28T00:08:59.210Z,2.20
2022-08-28T00:09:59.214Z,2.30
2022-08-28T00:10:59.225Z,2.00
2022-08-28T00:11:59.205Z,2.20
2022-08-28T00:12:59.176Z,2.10
2022-08-28T00:13:59.189Z,2.50
2022-08-28T00:15:00.130Z,2.10
2022-08-28T00:15:59.214Z,2.40
2022-08-28T00:16:59.128Z,2.00
2022-08-28T00:17:59.111Z,2.10
2022-08-28T00:18:59.106Z,2.30
2022-08-28T00:19:59.144Z,2.20
2022-08-28T00:20:59.084Z,2.40
2022-08-28T00:21:59.073Z,1.90
2022-08-28T00:22:59.084Z,2.10
2022-08-28T00:23:59.078Z,2.00
2022-08-28T00:24:59.041Z,2.40
2022-08-28T00:25:59.043Z,2.30
2022-08-28T00:26:59.026Z,2.50
2022-08-28T00:27:59.000Z,2.40
2022-08-28T00:28:59.030Z,2.30
2022-08-28T00:29:58.985Z,2.80
2022-08-28T00:30:59.087Z,3.30
2022-08-28T00:31:58.987Z,2.50
2022-08-28T00:32:58.949Z,2.70
2022-08-28T00:33:58.940Z,2.80
2022-08-28T00:34:58.952Z,2.40
2022-08-28T00:35:58.911Z,2.50
2022-08-28T00:36:58.899Z,2.60
2022-08-28T00:37:58.901Z,2.40
2022-08-28T00:38:58.882Z,2.70
2022-08-28T00:39:59.862Z,2.20
2022-08-28T00:40:59.363Z,2.40
2022-08-28T00:41:58.847Z,2.30
2022-08-28T00:42:58.828Z,3.10
2022-08-28T00:43:58.822Z,2.90
2022-08-28T00:44:58.834Z,2.70
2022-08-28T00:45:58.798Z,2.40
2022-08-28T00:46:58.797Z,2.40
2022-08-28T00:47:58.773Z,2.40
2022-08-28T00:48:58.765Z,2.50
2022-08-28T00:49:58.768Z,3.00
2022-08-28T00:51:00.674Z,2.40
2022-08-28T00:51:58.728Z,3.10
2022-08-28T00:52:58.738Z,2.50
2022-08-28T00:53:59.381Z,2.50
2022-08-28T00:54:59.851Z,2.80
2022-08-28T00:55:58.685Z,2.80
2022-08-28T00:56:58.678Z,2.80
2022-08-28T00:57:58.661Z,3.00
2022-08-28T00:58:58.653Z,3.40
2022-08-28T00:59:58.663Z,3.40
2022-08-28T01:00:58.651Z,2.50
2022-08-28T01:01:58.691Z,3.10
2022-08-28T01:02:58.640Z,2.70
2022-08-28T01:03:58.600Z,2.90
2022-08-28T01:04:58.595Z,2.90
2022-08-28T01:05:58.585Z,2.70
2022-08-28T01:06:58.568Z,3.10
2022-08-28T01:07:58.537Z,2.60
2022-08-28T01:08:59.048Z,2.80
2022-08-28T01:09:58.515Z,2.50
2022-08-28T01:10:58.534Z,3.00
2022-08-28T01:11:58.500Z,2.90
2022-08-28T01:12:58.496Z,3.10
2022-08-28T01:13:58.490Z,3.30
2022-08-28T01:14:58.471Z,2.80
2022-08-28T01:15:58.480Z,3.50
2022-08-28T01:16:58.443Z,2.90
2022-08-28T01:17:58.456Z,2.80
2022-08-28T01:18:58.466Z,3.00
2022-08-28T01:19:58.413Z,2.90
2022-08-28T01:20:58.398Z,3.30
2022-08-28T01:21:58.427Z,3.40
2022-08-28T01:22:58.379Z,3.30
2022-08-28T01:23:58.376Z,3.70
2022-08-28T01:24:58.374Z,3.50
2022-08-28T01:25:58.355Z,3.10
2022-08-28T01:26:58.591Z,2.90
2022-08-28T01:27:58.332Z,2.90
2022-08-28T01:28:58.401Z,3.10
2022-08-28T01:29:58.295Z,2.70
2022-08-28T01:30:58.342Z,2.70
2022-08-28T01:31:58.302Z,2.70
2022-08-28T01:32:58.264Z,3.30
2022-08-28T01:33:58.243Z,3.40
2022-08-28T01:34:58.248Z,3.20
2022-08-28T01:35:58.233Z,3.00
2022-08-28T01:36:58.541Z,3.10
2022-08-28T01:37:58.236Z,3.10
2022-08-28T01:38:58.208Z,2.60
2022-08-28T01:39:58.303Z,3.00
2022-08-28T01:40:58.186Z,3.00
2022-08-28T01:41:58.163Z,3.70
2022-08-28T01:42:58.155Z,3.10
2022-08-28T01:43:58.146Z,2.80
2022-08-28T01:44:58.125Z,2.70
2022-08-28T01:45:58.187Z,3.20
2022-08-28T01:46:58.121Z,2.90
2022-08-28T01:47:58.109Z,3.30
2022-08-28T01:48:58.089Z,3.20
2022-08-28T01:49:58.085Z,3.00
2022-08-28T01:50:58.067Z,2.90
2022-08-28T01:51:58.110Z,2.90
2022-08-28T01:52:58.049Z,3.10
2022-08-28T01:53:58.039Z,3.30
2022-08-28T01:54:58.110Z,3.60
2022-08-28T01:55:58.019Z,3.70
2022-08-28T01:56:58.060Z,3.30
2022-08-28T01:57:58.022Z,3.50
2022-08-28T01:58:57.990Z,3.10
2022-08-28T01:59:57.992Z,3.50
2022-08-28T02:00:58.040Z,3.50
2022-08-28T02:01:58.054Z,3.60
2022-08-28T02:02:57.941Z,3.10
2022-08-28T02:03:57.999Z,3.10
2022-08-28T02:04:57.912Z,2.90
2022-08-28T02:05:57.909Z,3.20
2022-08-28T02:06:57.912Z,3.40
2022-08-28T02:07:57.888Z,3.30
2022-08-28T02:08:57.872Z,3.30
2022-08-28T02:09:57.906Z,3.00
2022-08-28T02:10:57.875Z,3.10
2022-08-28T02:11:57.832Z,3.70
2022-08-28T02:12:59.252Z,3.60
2022-08-28T02:13:57.795Z,3.10
2022-08-28T02:14:57.819Z,3.40
2022-08-28T02:15:57.859Z,3.20
2022-08-28T02:16:57.774Z,3.30
2022-08-28T02:17:57.781Z,3.10
2022-08-28T02:18:57.759Z,3.10
2022-08-28T02:19:57.753Z,3.10
2022-08-28T02:20:57.747Z,3.00
2022-08-28T02:21:57.755Z,3.10
2022-08-28T02:22:57.731Z,2.90
2022-08-28T02:23:57.718Z,3.50
2022-08-28T02:24:57.692Z,3.10
2022-08-28T02:25:58.629Z,2.80
2022-08-28T02:26:57.669Z,3.50
2022-08-28T02:27:57.683Z,3.00
2022-08-28T02:28:57.659Z,3.30
2022-08-28T02:29:57.632Z,3.10
2022-08-28T02:30:57.693Z,2.70
2022-08-28T02:31:57.611Z,3.40
2022-08-28T02:32:57.619Z,3.20
2022-08-28T02:33:57.594Z,3.50
2022-08-28T02:34:57.571Z,3.30
2022-08-28T02:35:57.587Z,3.30
2022-08-28T02:36:57.597Z,3.20
2022-08-28T02:37:57.532Z,3.30
2022-08-28T02:38:58.018Z,3.20
2022-08-28T02:39:57.530Z,3.00
2022-08-28T02:40:57.535Z,3.10
2022-08-28T02:41:57.500Z,3.60
2022-08-28T02:42:57.488Z,2.90
2022-08-28T02:43:57.479Z,3.10
2022-08-28T02:44:57.519Z,3.40
2022-08-28T02:45:57.515Z,3.50
2022-08-28T02:46:57.461Z,3.00
2022-08-28T02:47:57.424Z,3.00
2022-08-28T02:48:57.420Z,2.80
2022-08-28T02:49:57.407Z,3.70
2022-08-28T02:50:57.430Z,3.50
2022-08-28T02:51:57.405Z,3.00
2022-08-28T02:52:57.381Z,3.30
2022-08-28T02:53:57.356Z,3.70
2022-08-28T02:54:57.378Z,3.30
2022-08-28T02:55:57.347Z,3.50
2022-08-28T02:56:57.330Z,3.20
2022-08-28T02:57:57.333Z,3.80
2022-08-28T02:58:57.351Z,3.40
2022-08-28T02:59:57.313Z,3.30
2022-08-28T03:00:57.346Z,3.50
2022-08-28T03:01:57.300Z,3.20
2022-08-28T03:02:57.342Z,2.90
2022-08-28T03:03:57.252Z,4.00
2022-08-28T03:04:57.231Z,3.30
2022-08-28T03:05:57.229Z,3.00
2022-08-28T03:06:57.215Z,3.80
2022-08-28T03:07:57.229Z,3.30
2022-08-28T03:08:57.201Z,3.70
2022-08-28T03:09:57.213Z,3.10
2022-08-28T03:10:57.183Z,3.00
2022-08-28T03:11:57.153Z,3.00
2022-08-28T03:12:57.194Z,2.80
2022-08-28T03:13:57.132Z,3.30
2022-08-28T03:14:57.156Z,2.60
2022-08-28T03:15:57.116Z,3.20
2022-08-28T03:16:57.174Z,2.70
2022-08-28T03:17:57.119Z,2.80
2022-08-28T03:18:57.085Z,2.90
2022-08-28T03:19:57.067Z,3.60
2022-08-28T03:20:57.060Z,3.20
2022-08-28T03:21:57.046Z,3.40
2022-08-28T03:22:58.015Z,3.30
2022-08-28T03:23:57.046Z,2.80
2022-08-28T03:24:57.016Z,2.70
2022-08-28T03:25:57.017Z,3.10
2022-08-28T03:26:57.068Z,3.40
2022-08-28T03:27:57.931Z,2.70
2022-08-28T03:28:57.027Z,3.10
2022-08-28T03:29:56.955Z,3.30
2022-08-28T03:30:57.000Z,3.00
2022-08-28T03:31:56.943Z,2.90
2022-08-28T03:32:56.948Z,3.20
2022-08-28T03:33:56.918Z,3.10
2022-08-28T03:34:57.093Z,2.90
2022-08-28T03:35:56.890Z,2.90
2022-08-28T03:36:56.882Z,3.20
2022-08-28T03:37:56.867Z,2.80
2022-08-28T03:38:56.864Z,2.90
2022-08-28T03:39:56.898Z,2.80
2022-08-28T03:40:56.874Z,3.10
2022-08-28T03:41:56.835Z,2.70
2022-08-28T03:42:56.830Z,3.50
2022-08-28T03:43:56.794Z,3.10
2022-08-28T03:44:56.790Z,2.90
2022-08-28T03:45:56.841Z,3.40
2022-08-28T03:46:56.800Z,3.50
2022-08-28T03:47:57.704Z,3.00
2022-08-28T03:48:56.747Z,2.90
2022-08-28T03:49:56.727Z,3.10
2022-08-28T03:50:56.747Z,3.00
2022-08-28T03:51:56.779Z,3.30
2022-08-28T03:52:56.926Z,3.20
2022-08-28T03:53:56.687Z,3.30
2022-08-28T03:54:56.735Z,3.20
2022-08-28T03:55:56.667Z,3.10
2022-08-28T03:56:56.658Z,3.70
2022-08-28T03:57:56.710Z,2.90
2022-08-28T03:58:56.644Z,3.00
2022-08-28T03:59:56.660Z,3.50
2022-08-28T04:00:56.745Z,3.20
2022-08-28T04:01:56.597Z,3.20
2022-08-28T04:02:56.634Z,3.10
2022-08-28T04:03:56.623Z,3.40
2022-08-28T04:04:56.560Z,3.00
2022-08-28T04:05:56.555Z,3.10
2022-08-28T04:06:56.566Z,3.50
2022-08-28T04:07:56.576Z,3.30
2022-08-28T04:09:00.292Z,2.90
2022-08-28T04:09:56.539Z,3.20
2022-08-28T04:10:56.493Z,3.00
2022-08-28T04:11:56.523Z,3.10
2022-08-28T04:12:56.483Z,3.00
2022-08-28T04:13:56.462Z,3.00
2022-08-28T04:14:56.444Z,3.20
2022-08-28T04:15:56.463Z,3.20
2022-08-28T04:16:59.732Z,3.20
2022-08-28T04:17:57.425Z,3.20
2022-08-28T04:18:56.404Z,3.60
2022-08-28T04:19:56.397Z,3.20
2022-08-28T04:20:56.414Z,2.50
2022-08-28T04:21:56.365Z,3.40
2022-08-28T04:22:56.366Z,3.60
2022-08-28T04:23:56.351Z,3.30
2022-08-28T04:24:56.336Z,3.00
2022-08-28T04:25:56.332Z,3.20
2022-08-28T04:26:56.347Z,3.10
2022-08-28T04:27:56.317Z,3.30
2022-08-28T04:28:56.351Z,3.10
2022-08-28T04:29:56.278Z,4.10
2022-08-28T04:30:56.264Z,3.40
2022-08-28T04:31:56.339Z,3.20
2022-08-28T04:32:56.390Z,2.70
2022-08-28T04:33:56.228Z,3.80
2022-08-28T04:34:56.229Z,2.90
2022-08-28T04:35:56.323Z,3.10
2022-08-28T04:36:56.259Z,3.40
2022-08-28T04:37:58.838Z,3.30
2022-08-28T04:38:56.190Z,2.90
2022-08-28T04:39:56.222Z,2.80
2022-08-28T04:40:56.190Z,3.30
2022-08-28T04:41:56.142Z,2.60
2022-08-28T04:42:56.170Z,2.80
2022-08-28T04:43:56.144Z,2.80
2022-08-28T04:44:56.157Z,3.00
2022-08-28T04:45:56.278Z,3.10
2022-08-28T04:46:56.351Z,2.80
2022-08-28T04:47:56.073Z,3.10
2022-08-28T04:48:56.094Z,3.30
2022-08-28T04:49:56.084Z,3.30
2022-08-28T04:50:56.068Z,3.00
2022-08-28T04:51:56.057Z,3.60
2022-08-28T04:52:56.080Z,3.90
2022-08-28T04:53:56.062Z,3.10
2022-08-28T04:54:56.024Z,3.20
2022-08-28T04:55:55.994Z,3.00
2022-08-28T04:56:56.089Z,3.60
2022-08-28T04:57:55.974Z,2.90
2022-08-28T04:58:55.952Z,3.00
2022-08-28T04:59:55.977Z,3.20
2022-08-28T05:00:55.974Z,3.70
2022-08-28T05:01:55.969Z,2.90
2022-08-28T05:02:55.946Z,3.20
2022-08-28T05:03:55.912Z,3.40
2022-08-28T05:04:55.882Z,3.20
2022-08-28T05:05:55.880Z,3.10
2022-08-28T05:06:55.970Z,3.00
2022-08-28T05:07:55.929Z,3.40
2022-08-28T05:08:55.836Z,3.00
2022-08-28T05:09:55.829Z,2.90
2022-08-28T05:10:55.852Z,3.20
2022-08-28T05:11:55.846Z,3.30
2022-08-28T05:12:55.925Z,3.30
2022-08-28T05:13:55.820Z,3.40
2022-08-28T05:14:55.780Z,3.40
2022-08-28T05:15:55.938Z,3.30
2022-08-28T05:16:55.857Z,3.50
2022-08-28T05:17:55.759Z,3.30
2022-08-28T05:18:55.729Z,3.10
2022-08-28T05:19:55.743Z,3.40
2022-08-28T05:20:55.716Z,3.20
2022-08-28T05:21:55.975Z,3.00
2022-08-28T05:22:55.683Z,3.20
2022-08-28T05:23:55.692Z,3.20
2022-08-28T05:24:55.664Z,3.10
2022-08-28T05:25:55.704Z,2.90
2022-08-28T05:26:55.654Z,3.10
2022-08-28T05:27:55.630Z,3.60
2022-08-28T05:28:55.677Z,3.00
2022-08-28T05:29:59.840Z,2.90
2022-08-28T05:30:56.620Z,3.20
2022-08-28T05:31:55.629Z,3.00
2022-08-28T05:32:55.566Z,3.70
2022-08-28T05:33:55.579Z,2.90
2022-08-28T05:34:55.581Z,3.10
2022-08-28T05:35:55.541Z,3.10
2022-08-28T05:36:55.537Z,2.80
2022-08-28T05:37:55.537Z,2.80
2022-08-28T05:38:55.503Z,2.90
2022-08-28T05:39:55.519Z,3.10
2022-08-28T05:40:55.479Z,2.70
2022-08-28T05:41:55.528Z,3.00
2022-08-28T05:42:55.451Z,3.10
2022-08-28T05:43:55.462Z,2.80
2022-08-28T05:44:55.442Z,2.60
2022-08-28T05:45:55.460Z,3.10
2022-08-28T05:46:55.485Z,2.60
2022-08-28T05:47:55.445Z,2.90
2022-08-28T05:48:55.423Z,2.80
2022-08-28T05:49:55.386Z,3.10
2022-08-28T05:50:55.471Z,2.80
2022-08-28T05:51:55.404Z,2.70
2022-08-28T05:52:55.468Z,3.20
2022-08-28T05:53:55.336Z,3.10
2022-08-28T05:54:55.332Z,3.10
2022-08-28T05:55:55.350Z,2.70
2022-08-28T05:56:55.417Z,3.20
2022-08-28T05:57:55.296Z,2.90
2022-08-28T05:58:55.299Z,2.80
2022-08-28T05:59:55.284Z,3.00
2022-08-28T06:00:55.263Z,2.90
2022-08-28T06:01:55.319Z,2.70
2022-08-28T06:02:55.264Z,2.70
2022-08-28T06:03:55.381Z,3.20
2022-08-28T06:04:55.242Z,2.80
2022-08-28T06:05:55.239Z,3.00
2022-08-28T06:06:55.191Z,2.90
2022-08-28T06:07:55.409Z,2.80
2022-08-28T06:08:58.259Z,2.90
2022-08-28T06:09:55.180Z,3.10
2022-08-28T06:10:55.172Z,2.70
2022-08-28T06:11:55.143Z,2.50
2022-08-28T06:12:55.154Z,2.80
2022-08-28T06:13:55.162Z,3.50
2022-08-28T06:14:55.133Z,2.80
2022-08-28T06:15:55.148Z,2.60
2022-08-28T06:16:55.113Z,3.10
2022-08-28T06:17:55.084Z,3.00
2022-08-28T06:18:55.064Z,3.00
2022-08-28T06:19:55.299Z,2.80
2022-08-28T06:20:55.035Z,2.60
2022-08-28T06:21:55.053Z,3.10
2022-08-28T06:22:55.029Z,2.90
2022-08-28T06:23:55.115Z,3.00
2022-08-28T06:24:55.114Z,2.80
2022-08-28T06:25:54.987Z,2.80
2022-08-28T06:26:58.046Z,2.80
2022-08-28T06:27:55.045Z,2.90
2022-08-28T06:28:54.973Z,2.60
2022-08-28T06:29:54.945Z,2.90
2022-08-28T06:31:18.376Z,3.10
2022-08-28T06:31:55.986Z,2.80
2022-08-28T06:32:54.936Z,3.00
2022-08-28T06:33:54.889Z,3.00
2022-08-28T06:34:54.879Z,2.60
2022-08-28T06:35:54.897Z,2.90
2022-08-28T06:36:54.869Z,3.20
2022-08-28T06:37:54.932Z,2.80
2022-08-28T06:38:54.833Z,2.60
2022-08-28T06:39:54.853Z,2.70
2022-08-28T06:40:54.889Z,2.50
2022-08-28T06:41:54.798Z,2.50
2022-08-28T06:42:54.791Z,2.70
2022-08-28T06:43:54.781Z,2.70
2022-08-28T06:44:54.818Z,2.60
2022-08-28T06:45:55.529Z,2.50
2022-08-28T06:46:54.805Z,2.30
2022-08-28T06:47:54.749Z,2.80
2022-08-28T06:48:54.717Z,2.60
2022-08-28T06:49:54.746Z,2.40
2022-08-28T06:50:54.690Z,2.20
2022-08-28T06:51:54.690Z,2.80
2022-08-28T06:52:54.674Z,2.50
2022-08-28T06:53:54.661Z,2.90
2022-08-28T06:54:55.599Z,2.90
2022-08-28T06:55:54.650Z,2.50
2022-08-28T06:56:54.651Z,2.40
2022-08-28T06:57:54.624Z,2.90
2022-08-28T06:58:54.623Z,2.50
2022-08-28T06:59:54.605Z,2.50
2022-08-28T07:01:02.280Z,2.60
2022-08-28T07:01:55.745Z,2.80
2022-08-28T07:02:54.613Z,2.40
2022-08-28T07:03:54.563Z,2.40
2022-08-28T07:04:54.555Z,2.50
2022-08-28T07:05:54.539Z,2.50
2022-08-28T07:06:55.042Z,2.60
2022-08-28T07:07:54.496Z,2.70
2022-08-28T07:08:54.505Z,2.60
2022-08-28T07:09:54.510Z,2.40
2022-08-28T07:10:54.510Z,2.60
2022-08-28T07:11:54.459Z,2.60
2022-08-28T07:12:54.467Z,3.10
2022-08-28T07:13:54.461Z,2.60
2022-08-28T07:14:54.423Z,2.50
2022-08-28T07:15:54.456Z,2.30
2022-08-28T07:16:54.401Z,2.60
2022-08-28T07:17:54.420Z,2.70
2022-08-28T07:18:54.372Z,2.30
2022-08-28T07:19:54.383Z,2.20
2022-08-28T07:20:54.359Z,2.70
2022-08-28T07:21:54.350Z,2.40
2022-08-28T07:22:59.439Z,2.60
2022-08-28T07:23:55.328Z,2.50
2022-08-28T07:24:54.335Z,2.30
2022-08-28T07:25:54.302Z,2.50
2022-08-28T07:26:54.286Z,2.20
2022-08-28T07:27:54.284Z,2.40
2022-08-28T07:29:09.492Z,2.20
2022-08-28T07:29:55.285Z,2.10
2022-08-28T07:30:54.260Z,2.20
2022-08-28T07:31:54.256Z,2.60
2022-08-28T07:32:54.232Z,2.30
2022-08-28T07:33:54.346Z,2.50
2022-08-28T07:34:54.253Z,1.90
2022-08-28T07:35:54.218Z,2.10
2022-08-28T07:36:54.170Z,2.00
2022-08-28T07:37:54.190Z,2.10
2022-08-28T07:38:54.151Z,2.00
2022-08-28T07:39:54.224Z,2.40
2022-08-28T07:40:54.139Z,2.10
2022-08-28T07:41:54.136Z,2.80
2022-08-28T07:42:54.121Z,2.30
2022-08-28T07:43:54.109Z,2.20
2022-08-28T07:44:54.117Z,2.00
2022-08-28T07:45:54.110Z,2.40
2022-08-28T07:46:54.139Z,2.20
2022-08-28T07:47:54.087Z,2.20
2022-08-28T07:48:54.049Z,2.50
2022-08-28T07:49:54.053Z,2.20
2022-08-28T07:50:54.031Z,2.70
2022-08-28T07:51:54.569Z,2.40
2022-08-28T07:52:54.018Z,2.00
2022-08-28T07:53:54.009Z,2.20
2022-08-28T07:54:54.033Z,2.40
2022-08-28T07:55:54.033Z,2.60
2022-08-28T07:56:53.993Z,2.60
2022-08-28T07:57:53.961Z,1.90
2022-08-28T07:58:53.949Z,2.30
2022-08-28T07:59:53.920Z,2.20
2022-08-28T08:00:53.913Z,2.70
2022-08-28T08:01:54.001Z,2.30
2022-08-28T08:02:53.928Z,2.10
2022-08-28T08:03:57.715Z,2.50
2022-08-28T08:04:54.914Z,2.20
2022-08-28T08:05:53.868Z,2.00
2022-08-28T08:06:57.837Z,2.20
2022-08-28T08:07:53.875Z,2.70
2022-08-28T08:08:53.825Z,2.30
2022-08-28T08:09:53.809Z,2.20
2022-08-28T08:10:53.788Z,2.80
2022-08-28T08:11:53.798Z,2.20
2022-08-28T08:12:53.814Z,2.20
2022-08-28T08:13:53.758Z,2.80
2022-08-28T08:14:53.776Z,2.50
2022-08-28T08:15:53.838Z,2.10
2022-08-28T08:16:53.769Z,2.10
2022-08-28T08:17:53.763Z,2.50
2022-08-28T08:18:53.698Z,2.10
2022-08-28T08:19:53.698Z,2.50
2022-08-28T08:20:53.678Z,2.30
2022-08-28T08:21:55.106Z,2.40
2022-08-28T08:22:53.689Z,1.80
2022-08-28T08:23:53.659Z,2.20
2022-08-28T08:24:53.708Z,1.80
2022-08-28T08:25:53.633Z,2.00
2022-08-28T08:27:00.366Z,2.20
2022-08-28T08:27:54.653Z,2.40
2022-08-28T08:28:53.598Z,2.30
2022-08-28T08:29:53.617Z,1.70
2022-08-28T08:30:53.627Z,2.20
2022-08-28T08:31:53.579Z,2.00
2022-08-28T08:32:53.548Z,2.80
2022-08-28T08:33:53.623Z,2.10
2022-08-28T08:34:53.543Z,2.00
2022-08-28T08:35:53.526Z,2.00
2022-08-28T08:36:53.505Z,2.20
2022-08-28T08:37:53.500Z,2.30
2022-08-28T08:38:59.467Z,1.80
2022-08-28T08:39:54.539Z,2.20
2022-08-28T08:40:53.465Z,2.00
2022-08-28T08:41:53.482Z,2.00
2022-08-28T08:42:53.439Z,2.20
2022-08-28T08:43:53.437Z,2.10
2022-08-28T08:44:53.433Z,2.60
2022-08-28T08:45:53.469Z,2.50
2022-08-28T08:46:53.390Z,2.00
2022-08-28T08:47:53.402Z,2.40
2022-08-28T08:48:54.359Z,1.80
2022-08-28T08:49:53.351Z,1.90
2022-08-28T08:50:53.353Z,2.30
2022-08-28T08:51:53.372Z,2.30
2022-08-28T08:52:53.396Z,2.00
2022-08-28T08:53:53.341Z,2.00
2022-08-28T08:54:56.435Z,2.10
2022-08-28T08:55:54.337Z,2.10
2022-08-28T08:56:53.324Z,2.20
2022-08-28T08:57:53.280Z,2.30
2022-08-28T08:58:53.260Z,2.00
2022-08-28T08:59:53.310Z,1.90
2022-08-28T09:00:53.241Z,2.30
2022-08-28T09:01:53.359Z,2.00
2022-08-28T09:02:53.235Z,2.40
2022-08-28T09:03:53.836Z,2.10
2022-08-28T09:04:53.223Z,1.90
2022-08-28T09:05:53.181Z,2.40
2022-08-28T09:06:53.181Z,2.20
2022-08-28T09:07:53.373Z,2.60
2022-08-28T09:08:53.157Z,2.10
2022-08-28T09:09:53.159Z,2.10
2022-08-28T09:10:53.149Z,1.90
2022-08-28T09:11:57.109Z,2.40
2022-08-28T09:12:53.097Z,2.60
2022-08-28T09:13:53.130Z,2.00
2022-08-28T09:14:53.088Z,2.70
2022-08-28T09:15:53.134Z,2.20
2022-08-28T09:16:53.069Z,1.90
2022-08-28T09:17:53.055Z,2.20
2022-08-28T09:18:53.040Z,2.70
2022-08-28T09:19:53.039Z,2.00
2022-08-28T09:20:53.009Z,1.90
2022-08-28T09:21:53.008Z,1.90
2022-08-28T09:22:53.010Z,1.90
2022-08-28T09:23:53.019Z,1.70
2022-08-28T09:24:52.981Z,1.90
2022-08-28T09:25:52.958Z,1.90
2022-08-28T09:26:52.985Z,2.10
2022-08-28T09:27:52.955Z,2.00
2022-08-28T09:28:52.972Z,2.00
2022-08-28T09:29:52.965Z,2.00
2022-08-28T09:30:52.926Z,2.00
2022-08-28T09:31:52.922Z,2.00
2022-08-28T09:32:52.872Z,2.00
2022-08-28T09:33:52.888Z,2.00
2022-08-28T09:34:52.855Z,2.40
2022-08-28T09:35:52.863Z,2.20
2022-08-28T09:36:52.837Z,1.60
2022-08-28T09:37:52.824Z,2.10
2022-08-28T09:38:52.827Z,2.00
2022-08-28T09:39:52.889Z,2.10
2022-08-28T09:40:52.797Z,1.80
2022-08-28T09:41:52.850Z,1.90
2022-08-28T09:42:52.770Z,2.60
2022-08-28T09:43:52.746Z,2.00
2022-08-28T09:44:52.739Z,2.50
2022-08-28T09:45:52.805Z,1.90
2022-08-28T09:46:52.738Z,2.30
2022-08-28T09:47:52.713Z,1.90
2022-08-28T09:48:52.693Z,2.20
2022-08-28T09:49:52.694Z,1.70
2022-08-28T09:50:52.699Z,2.10
2022-08-28T09:51:52.665Z,1.80
2022-08-28T09:52:52.658Z,2.00
2022-08-28T09:53:52.655Z,1.70
2022-08-28T09:54:52.631Z,2.10
2022-08-28T09:55:52.645Z,2.00
2022-08-28T09:56:52.642Z,2.00
2022-08-28T09:57:52.591Z,1.90
2022-08-28T09:58:52.610Z,2.40
2022-08-28T09:59:52.574Z,1.90
2022-08-28T10:00:52.577Z,1.90
2022-08-28T10:01:52.643Z,1.70
2022-08-28T10:02:52.538Z,1.50
2022-08-28T10:03:52.578Z,2.10
2022-08-28T10:04:52.533Z,2.40
2022-08-28T10:05:52.551Z,1.80
2022-08-28T10:06:52.516Z,2.10
2022-08-28T10:07:52.525Z,2.20
2022-08-28T10:08:52.486Z,2.20
2022-08-28T10:09:52.478Z,1.80
2022-08-28T10:10:52.460Z,2.00
2022-08-28T10:11:52.515Z,1.80
2022-08-28T10:12:52.437Z,1.80
2022-08-28T10:13:52.436Z,1.80
2022-08-28T10:14:52.427Z,2.50
2022-08-28T10:15:52.451Z,2.00
2022-08-28T10:16:52.405Z,2.30
2022-08-28T10:17:52.430Z,1.70
2022-08-28T10:18:52.380Z,1.90
2022-08-28T10:19:52.346Z,2.30
2022-08-28T10:20:52.379Z,2.10
2022-08-28T10:21:52.331Z,2.00
2022-08-28T10:22:52.334Z,1.70
2022-08-28T10:23:52.377Z,2.00
2022-08-28T10:24:52.293Z,2.30
2022-08-28T10:25:52.317Z,1.80
2022-08-28T10:26:52.277Z,1.90
2022-08-28T10:27:52.259Z,2.10
2022-08-28T10:28:52.243Z,1.40
2022-08-28T10:29:52.427Z,1.90
2022-08-28T10:30:52.259Z,1.90
2022-08-28T10:31:52.203Z,1.70
2022-08-28T10:32:52.198Z,1.50
2022-08-28T10:33:52.197Z,1.80
2022-08-28T10:34:52.188Z,1.90
2022-08-28T10:35:52.205Z,1.80
2022-08-28T10:36:52.159Z,1.90
2022-08-28T10:37:52.177Z,1.90
2022-08-28T10:38:53.246Z,2.10
2022-08-28T10:39:52.246Z,1.90
2022-08-28T10:40:52.151Z,1.80
2022-08-28T10:41:52.118Z,1.70
2022-08-28T10:42:52.099Z,1.60
2022-08-28T10:43:52.088Z,1.80
2022-08-28T10:44:52.074Z,1.70
2022-08-28T10:45:52.136Z,1.60
2022-08-28T10:46:52.123Z,1.70
2022-08-28T10:47:52.072Z,1.60
2022-08-28T10:48:52.036Z,1.90
2022-08-28T10:49:52.035Z,1.60
2022-08-28T10:50:52.000Z,1.80
2022-08-28T10:51:51.994Z,1.80
2022-08-28T10:52:52.011Z,1.80
2022-08-28T10:53:51.987Z,1.70
2022-08-28T10:54:51.961Z,1.70
2022-08-28T10:55:51.943Z,2.10
2022-08-28T10:56:56.597Z,2.00
2022-08-28T10:57:51.917Z,1.90
2022-08-28T10:58:51.939Z,1.60
2022-08-28T10:59:51.903Z,1.80
2022-08-28T11:00:51.924Z,2.00
2022-08-28T11:01:51.944Z,1.70
2022-08-28T11:02:51.956Z,1.70
2022-08-28T11:03:51.880Z,1.70
2022-08-28T11:04:54.287Z,1.50
2022-08-28T11:05:53.874Z,2.00
2022-08-28T11:06:51.824Z,1.90
2022-08-28T11:07:51.818Z,1.50
2022-08-28T11:08:51.810Z,1.70
2022-08-28T11:09:51.809Z,1.70
2022-08-28T11:10:51.852Z,2.00
2022-08-28T11:11:51.771Z,1.70
2022-08-28T11:12:51.774Z,1.60
2022-08-28T11:13:51.753Z,1.70
2022-08-28T11:14:51.745Z,1.60
2022-08-28T11:15:51.712Z,1.60
2022-08-28T11:16:51.793Z,1.70
2022-08-28T11:17:51.727Z,1.80
2022-08-28T11:18:51.704Z,1.70
2022-08-28T11:19:52.506Z,1.70
2022-08-28T11:20:51.672Z,1.50
2022-08-28T11:21:51.682Z,2.20
2022-08-28T11:22:51.674Z,1.70
2022-08-28T11:23:51.658Z,1.60
2022-08-28T11:24:51.655Z,1.90
2022-08-28T11:25:51.624Z,1.70
2022-08-28T11:26:51.623Z,1.80
2022-08-28T11:27:51.625Z,1.80
2022-08-28T11:28:51.584Z,1.60
2022-08-28T11:29:51.598Z,1.60
2022-08-28T11:30:51.623Z,1.60
2022-08-28T11:31:51.565Z,1.70
2022-08-28T11:32:51.578Z,1.70
2022-08-28T11:33:51.540Z,1.80
2022-08-28T11:34:51.524Z,1.80
2022-08-28T11:35:51.552Z,1.60
2022-08-28T11:36:51.520Z,2.30
2022-08-28T11:37:51.515Z,1.70
2022-08-28T11:38:51.477Z,1.40
2022-08-28T11:39:51.460Z,1.60
2022-08-28T11:40:51.449Z,1.90
2022-08-28T11:41:51.489Z,1.70
2022-08-28T11:42:51.430Z,1.80
2022-08-28T11:43:51.441Z,1.90
2022-08-28T11:44:51.407Z,2.00
2022-08-28T11:45:51.462Z,1.50
2022-08-28T11:46:51.415Z,2.10
2022-08-28T11:47:51.374Z,1.50
2022-08-28T11:48:51.393Z,1.50
2022-08-28T11:49:51.382Z,1.60
2022-08-28T11:50:51.344Z,1.80
2022-08-28T11:51:51.334Z,1.50
2022-08-28T11:52:51.323Z,1.70
2022-08-28T11:53:51.316Z,1.70
2022-08-28T11:54:51.335Z,1.50
2022-08-28T11:55:51.291Z,1.70
2022-08-28T11:56:51.275Z,1.40
2022-08-28T11:57:51.286Z,1.60
2022-08-28T11:58:51.300Z,1.40
2022-08-28T11:59:51.241Z,1.40
2022-08-28T12:00:51.257Z,1.50
2022-08-28T12:01:51.279Z,1.50
2022-08-28T12:02:51.298Z,1.70
2022-08-28T12:03:51.231Z,1.50
2022-08-28T12:04:51.254Z,1.40
2022-08-28T12:05:51.161Z,1.60
2022-08-28T12:06:51.183Z,1.40
2022-08-28T12:07:51.179Z,2.30
2022-08-28T12:08:51.140Z,2.90
2022-08-28T12:09:51.165Z,1.90
2022-08-28T12:10:51.127Z,1.60
2022-08-28T12:11:51.120Z,1.50
2022-08-28T12:12:51.134Z,2.10
2022-08-28T12:13:51.083Z,2.40
2022-08-28T12:14:51.112Z,2.20
2022-08-28T12:15:51.300Z,1.80
2022-08-28T12:16:51.059Z,1.40
2022-08-28T12:17:51.117Z,1.80
2022-08-28T12:18:51.086Z,1.60
2022-08-28T12:19:55.343Z,1.50
2022-08-28T12:20:52.011Z,1.60
2022-08-28T12:21:51.033Z,1.50
2022-08-28T12:22:50.994Z,1.80
2022-08-28T12:23:51.035Z,1.40
2022-08-28T12:24:50.965Z,1.70
2022-08-28T12:25:50.960Z,1.70
2022-08-28T12:26:50.990Z,1.70
2022-08-28T12:27:50.941Z,1.70
2022-08-28T12:28:50.935Z,1.60
2022-08-28T12:29:50.955Z,1.60
2022-08-28T12:30:50.993Z,1.60
2022-08-28T12:31:50.891Z,1.30
2022-08-28T12:32:50.882Z,1.50
2022-08-28T12:33:50.890Z,1.60
2022-08-28T12:34:50.886Z,2.10
2022-08-28T12:35:50.864Z,1.60
2022-08-28T12:36:52.152Z,1.60
2022-08-28T12:37:51.856Z,1.80
2022-08-28T12:38:50.857Z,1.50
2022-08-28T12:39:50.829Z,1.60
2022-08-28T12:40:50.841Z,1.30
2022-08-28T12:41:50.764Z,1.40
2022-08-28T12:42:54.544Z,1.70
2022-08-28T12:43:50.766Z,1.80
2022-08-28T12:44:50.813Z,1.50
2022-08-28T12:45:50.815Z,1.80
2022-08-28T12:46:50.735Z,1.70
2022-08-28T12:47:50.718Z,1.60
2022-08-28T12:48:50.733Z,1.40
2022-08-28T12:49:50.710Z,1.60
2022-08-28T12:50:50.722Z,1.70
2022-08-28T12:51:50.680Z,1.60
2022-08-28T12:52:50.670Z,1.50
2022-08-28T12:53:50.702Z,1.50
2022-08-28T12:54:50.645Z,1.40
2022-08-28T12:55:50.659Z,1.50
2022-08-28T12:56:50.646Z,1.40
2022-08-28T12:57:50.636Z,1.50
2022-08-28T12:58:50.646Z,1.70
2022-08-28T12:59:50.605Z,1.30
2022-08-28T13:00:54.492Z,1.50
2022-08-28T13:01:50.720Z,1.50
2022-08-28T13:02:50.934Z,1.70
2022-08-28T13:03:50.552Z,1.20
2022-08-28T13:04:50.587Z,1.40
2022-08-28T13:05:50.534Z,1.30
2022-08-28T13:06:50.540Z,1.30
2022-08-28T13:07:50.523Z,1.40
2022-08-28T13:08:50.498Z,1.50
2022-08-28T13:09:50.541Z,1.30
2022-08-28T13:10:50.480Z,1.40
2022-08-28T13:11:50.474Z,1.60
2022-08-28T13:12:56.640Z,1.70
2022-08-28T13:13:51.461Z,1.70
2022-08-28T13:14:50.431Z,1.70
2022-08-28T13:15:50.422Z,1.60
2022-08-28T13:16:50.469Z,1.80
2022-08-28T13:17:50.405Z,1.50
2022-08-28T13:18:50.458Z,1.50